Time;durP1;ratioP1;P1;durP2;ratioP2;P2;SDS_P1;SDS_P2;PMS_P1;PMS_P2;Temp;Humidity;BMP_temperature;BMP_pressure;BME280_temperature;BME280_humidity;BME280_pressure;Samples;Min_cycle;Max_cycle;Signal;HPM_P1;HPM_P2
2023/03/27 00:01:44;;;;;;;37.85;20.15;;;;;;;6.80;63.85;99547.17;124270;1102;104181;-69
2023/03/27 00:04:17;;;;;;;37.07;20.53;;;;;;;6.78;63.86;99552.33;124267;1102;104179;-68
2023/03/27 00:06:48;;;;;;;41.60;21.75;;;;;;;6.75;63.77;99544.39;124316;1102;104227;-69
2023/03/27 00:09:20;;;;;;;37.57;20.33;;;;;;;6.74;63.85;99546.95;124233;1102;101839;-69
2023/03/27 00:11:54;;;;;;;35.00;18.77;;;;;;;6.73;64.09;99546.07;124273;1102;104251;-69
2023/03/27 00:14:26;;;;;;;39.77;20.53;;;;;;;6.73;63.92;99545.16;124217;1102;101906;-69
2023/03/27 00:16:58;;;;;;;39.57;19.80;;;;;;;6.70;64.14;99543.35;124271;1102;104175;-69
2023/03/27 00:19:30;;;;;;;37.83;19.53;;;;;;;6.68;64.17;99538.91;124250;1102;104200;-69
2023/03/27 00:22:01;;;;;;;37.63;19.77;;;;;;;6.64;64.13;99540.52;124299;1102;104169;-69
2023/03/27 00:24:33;;;;;;;36.90;18.47;;;;;;;6.61;64.36;99537.80;124264;1102;104291;-69
2023/03/27 00:27:04;;;;;;;38.97;20.30;;;;;;;6.62;64.23;99542.17;124282;1102;102787;-69
2023/03/27 00:29:35;;;;;;;39.87;20.13;;;;;;;6.57;64.30;99538.52;124213;1102;102015;-69
2023/03/27 00:32:07;;;;;;;42.90;21.83;;;;;;;6.55;64.45;99540.19;124192;1102;101932;-71
2023/03/27 00:34:39;;;;;;;37.53;20.60;;;;;;;6.55;64.49;99529.77;124231;1102;104313;-69
2023/03/27 00:37:10;;;;;;;38.37;20.80;;;;;;;6.52;64.71;99529.66;124302;1102;104175;-70
2023/03/27 00:39:42;;;;;;;41.77;22.57;;;;;;;6.51;64.83;99533.08;124208;1102;104245;-69
2023/03/27 00:42:15;;;;;;;42.27;22.77;;;;;;;6.48;64.68;99528.63;124234;1102;104160;-69
2023/03/27 00:44:46;;;;;;;45.20;23.43;;;;;;;6.46;64.56;99528.58;124225;1102;104240;-69
2023/03/27 00:47:19;;;;;;;47.47;24.20;;;;;;;6.46;64.63;99525.97;124208;1102;101836;-69
2023/03/27 00:49:51;;;;;;;40.25;23.15;;;;;;;6.46;65.05;99519.88;124203;1102;104204;-69
2023/03/27 00:52:28;;;;;;;40.60;22.63;;;;;;;6.43;65.10;99525.86;124223;1102;104274;-69
2023/03/27 00:55:04;;;;;;;40.07;22.40;;;;;;;6.42;64.82;99523.19;124235;1102;104639;-69
2023/03/27 00:57:36;;;;;;;44.83;22.47;;;;;;;6.42;64.91;99516.28;124250;1102;104196;-69
2023/03/27 01:00:12;;;;;;;40.53;21.43;;;;;;;6.38;65.39;99514.39;124217;1102;101941;-69
2023/03/27 01:02:46;;;;;;;43.77;22.10;;;;;;;6.37;65.06;99507.39;124182;1101;102009;-69
2023/03/27 01:05:19;;;;;;;38.30;20.00;;;;;;;6.35;65.21;99514.27;124237;1100;104271;-69
2023/03/27 01:07:51;;;;;;;;;;;;;;;6.32;65.24;99515.89;124261;1102;104268;-68
2023/03/27 01:10:31;;;;;;;39.27;19.77;;;;;;;6.27;65.33;99513.11;124335;1102;101960;-69
2023/03/27 01:13:17;;;;;;;36.40;19.70;;;;;;;6.23;65.21;99522.55;124186;1102;103654;-71
2023/03/27 01:15:56;;;;;;;37.90;19.50;;;;;;;6.23;65.52;99526.84;124234;1102;101924;-69
2023/03/27 01:18:41;;;;;;;36.23;19.37;;;;;;;6.22;65.20;99525.09;124235;1102;104178;-69
2023/03/27 01:21:36;;;;;;;38.63;19.67;;;;;;;6.20;65.42;99521.52;124284;1101;104200;-69
2023/03/27 01:24:38;;;;;;;38.45;19.45;;;;;;;6.16;65.72;99524.86;124196;1102;102286;-71
2023/03/27 01:27:15;;;;;;;42.13;19.80;;;;;;;6.08;65.73;99517.63;124292;1102;104173;-69
2023/03/27 01:30:12;;;;;;;36.87;19.73;;;;;;;5.99;65.98;99516.41;124243;1102;104255;-69
2023/03/27 01:33:24;;;;;;;35.67;18.67;;;;;;;5.94;66.02;99509.26;124264;1102;104337;-69
2023/03/27 01:36:13;;;;;;;38.83;19.87;;;;;;;5.93;66.28;99506.59;124201;1102;102291;-69
2023/03/27 01:39:30;;;;;;;84.93;24.73;;;;;;;5.94;65.76;99508.38;124276;1102;104173;-69
2023/03/27 01:42:08;;;;;;;35.40;18.05;;;;;;;5.93;66.11;99496.18;124186;1102;104296;-69
2023/03/27 01:44:47;;;;;;;38.47;19.70;;;;;;;5.89;66.11;99486.47;124197;1102;104287;-70
2023/03/27 01:47:28;;;;;;;36.90;19.43;;;;;;;5.88;66.12;99492.52;124196;1102;104092;-69
2023/03/27 01:50:08;;;;;;;43.03;22.23;;;;;;;5.90;66.49;99485.64;124180;1102;104236;-69
2023/03/27 01:52:42;;;;;;;38.83;21.03;;;;;;;5.90;66.37;99485.64;124242;1102;104194;-70
2023/03/27 01:55:19;;;;;;;45.33;24.03;;;;;;;5.89;66.76;99486.47;124233;1102;104169;-70
2023/03/27 01:57:59;;;;;;;41.20;23.73;;;;;;;5.88;66.50;99485.59;124281;1102;104313;-69
2023/03/27 02:00:32;;;;;;;41.83;23.00;;;;;;;5.89;66.43;99495.19;124187;1102;104470;-68
2023/03/27 02:03:14;;;;;;;42.50;21.93;;;;;;;5.91;66.52;99490.03;124256;1102;101900;-68
2023/03/27 02:05:51;;;;;;;41.27;22.67;;;;;;;5.94;66.57;99485.82;124165;1102;104224;-69
2023/03/27 02:08:28;;;;;;;42.93;23.23;;;;;;;5.96;66.39;99480.67;124243;1102;102284;-68
2023/03/27 02:11:07;;;;;;;39.03;21.13;;;;;;;5.94;66.45;99469.32;124181;1102;104246;-69
2023/03/27 02:13:45;;;;;;;42.30;22.03;;;;;;;5.91;67.04;99472.69;124273;1102;104169;-68
2023/03/27 02:16:21;;;;;;;40.30;20.87;;;;;;;5.90;66.64;99470.02;124260;1102;102427;-68
2023/03/27 02:19:00;;;;;;;38.25;21.30;;;;;;;5.88;67.11;99467.36;124335;1102;104339;-68
2023/03/27 02:21:31;;;;;;;39.37;20.77;;;;;;;5.87;67.13;99464.70;124286;1102;104271;-68
2023/03/27 02:24:04;;;;;;;38.97;19.27;;;;;;;5.87;66.72;99470.78;124264;1102;102042;-69
2023/03/27 02:26:36;;;;;;;39.23;19.23;;;;;;;5.89;67.07;99478.66;124235;1102;102158;-69
2023/03/27 02:29:26;;;;;;;37.20;19.30;;;;;;;5.91;66.88;99483.10;124390;1101;104233;-68
2023/03/27 02:32:07;;;;;;;36.57;19.07;;;;;;;5.94;66.93;99472.80;124376;1102;104268;-69
2023/03/27 02:34:57;;;;;;;39.53;18.07;;;;;;;5.97;67.12;99473.77;124336;1102;104712;-69
2023/03/27 02:37:40;;;;;;;35.10;17.93;;;;;;;5.95;66.93;99476.28;124212;1102;119301;-68
2023/03/27 02:40:42;;;;;;;36.33;17.73;;;;;;;5.93;66.86;99480.55;124216;1102;104393;-68
2023/03/27 02:43:37;;;;;;;37.60;18.50;;;;;;;5.89;66.65;99473.45;124327;1102;104344;-68
2023/03/27 02:46:17;;;;;;;30.90;17.30;;;;;;;5.78;66.63;99459.14;124179;1102;104201;-69
2023/03/27 02:48:52;;;;;;;33.33;17.67;;;;;;;5.85;66.99;99471.58;124321;1102;104274;-69
2023/03/27 02:51:29;;;;;;;34.47;17.83;;;;;;;5.85;67.09;99466.38;124277;1102;104456;-69
2023/03/27 02:54:05;;;;;;;34.33;18.13;;;;;;;5.87;66.97;99469.91;124240;1102;104294;-69
2023/03/27 02:56:42;;;;;;;35.97;17.80;;;;;;;5.88;67.14;99474.30;124318;1102;104086;-70
2023/03/27 02:59:21;;;;;;;36.40;17.83;;;;;;;5.87;67.48;99469.91;124227;1102;104230;-69
2023/03/27 03:01:53;;;;;;;34.90;17.70;;;;;;;5.88;67.29;99466.48;124338;1102;103156;-69
2023/03/27 03:04:33;;;;;;;35.83;17.00;;;;;;;5.87;67.11;99473.39;124372;1102;104185;-69
2023/03/27 03:07:18;;;;;;;33.47;17.40;;;;;;;5.84;67.30;99467.19;124257;1102;104731;-69
2023/03/27 03:09:49;;;;;;;33.93;17.00;;;;;;;5.79;67.44;99463.53;124300;1102;104272;-69
2023/03/27 03:12:21;;;;;;;33.17;15.47;;;;;;;5.78;67.31;99469.55;124366;1101;101830;-68
2023/03/27 03:14:53;;;;;;;33.90;16.43;;;;;;;5.75;67.08;99460.81;124276;1102;102507;-69
2023/03/27 03:17:24;;;;;;;34.33;17.73;;;;;;;5.79;67.33;99471.34;124236;1102;104230;-70
2023/03/27 03:19:56;;;;;;;32.73;16.40;;;;;;;5.80;67.41;99465.28;124295;1102;103631;-69
2023/03/27 03:22:27;;;;;;;29.43;15.53;;;;;;;5.80;67.16;99460.08;124389;1102;102230;-68
2023/03/27 03:24:58;;;;;;;30.43;16.57;;;;;;;5.79;67.07;99455.72;124302;1102;104251;-69
2023/03/27 03:27:33;;;;;;;32.33;17.40;;;;;;;5.72;67.42;99452.88;124205;1102;104272;-69
2023/03/27 03:30:15;;;;;;;30.60;14.33;;;;;;;5.70;67.07;99457.16;124268;1102;104362;-69
2023/03/27 03:33:21;;;;;;;27.83;14.77;;;;;;;5.72;67.24;99459.81;124524;1102;104184;-70
2023/03/27 03:35:53;;;;;;;33.27;15.83;;;;;;;5.73;67.48;99457.27;124308;1102;104332;-70
2023/03/27 03:38:30;;;;;;;36.03;16.10;;;;;;;5.75;67.92;99463.41;124371;1102;104226;-73
2023/03/27 03:41:02;;;;;;;31.77;15.97;;;;;;;5.76;67.48;99466.89;124399;1102;104178;-69
2023/03/27 03:43:34;;;;;;;31.27;15.77;;;;;;;5.74;67.64;99465.95;124346;1102;102028;-69
2023/03/27 03:46:06;;;;;;;36.87;15.53;;;;;;;5.73;67.33;99465.08;124272;1102;104186;-70
2023/03/27 03:48:37;;;;;;;33.67;16.50;;;;;;;5.71;67.82;99456.30;124301;1102;104291;-70
2023/03/27 03:51:16;;;;;;;34.10;14.20;;;;;;;5.69;67.73;99465.78;124298;1100;102853;-70
2023/03/27 03:53:49;;;;;;;30.70;14.67;;;;;;;5.68;67.53;99461.39;124358;1102;104214;-69
2023/03/27 03:56:21;;;;;;;35.10;15.20;;;;;;;5.66;68.04;99462.18;124262;1100;102392;-69
2023/03/27 03:58:54;;;;;;;31.37;15.27;;;;;;;5.64;68.03;99464.73;124049;1102;104242;-70
2023/03/27 04:01:26;;;;;;;32.90;14.47;;;;;;;5.60;68.46;99468.02;124330;1102;104208;-70
2023/03/27 04:04:02;;;;;;;29.33;14.87;;;;;;;5.61;67.75;99467.20;124263;1102;104175;-70
2023/03/27 04:06:39;;;;;;;31.87;15.47;;;;;;;5.62;68.10;99471.56;124133;1103;104249;-69
2023/03/27 04:09:11;;;;;;;32.80;15.15;;;;;;;5.62;68.00;99468.96;124103;1102;103539;-69
2023/03/27 04:12:08;;;;;;;29.97;15.13;;;;;;;5.64;67.87;99463.81;124564;1102;104248;-70
2023/03/27 04:14:50;;;;;;;35.43;15.63;;;;;;;5.65;68.28;99469.08;124226;1102;104233;-72
2023/03/27 04:17:51;;;;;;;31.23;15.33;;;;;;;5.66;68.20;99454.38;124251;1102;104339;-72
2023/03/27 04:20:25;;;;;;;33.00;15.00;;;;;;;5.68;68.04;99458.78;124413;1102;104271;-72
2023/03/27 04:23:01;;;;;;;30.47;15.10;;;;;;;5.69;68.23;99465.78;124332;1102;104227;-70
2023/03/27 04:25:32;;;;;;;36.17;15.70;;;;;;;5.73;68.16;99464.17;124022;1102;104221;-70
2023/03/27 04:28:04;;;;;;;33.33;15.53;;;;;;;5.76;68.17;99462.59;124386;1102;101810;-71
2023/03/27 04:30:42;;;;;;;33.07;16.47;;;;;;;5.79;68.07;99459.20;124333;1102;104335;-71
2023/03/27 04:33:33;;;;;;;33.17;16.23;;;;;;;5.83;68.40;99457.59;124488;1102;104188;-73
2023/03/27 04:36:09;;;;;;;32.40;15.13;;;;;;;5.87;68.44;99459.49;124437;1102;104201;-71
2023/03/27 04:38:48;;;;;;;34.77;17.03;;;;;;;5.91;68.11;99457.06;124379;1102;102053;-72
2023/03/27 04:41:20;;;;;;;34.63;17.43;;;;;;;5.98;68.29;99452.12;124418;1102;104217;-73
2023/03/27 04:43:52;;;;;;;34.50;17.53;;;;;;;6.03;68.15;99448.87;124421;1102;103654;-71
2023/03/27 04:46:23;;;;;;;39.50;18.30;;;;;;;6.08;67.90;99442.09;124434;1102;104264;-73
2023/03/27 04:49:00;;;;;;;36.43;17.63;;;;;;;6.16;68.41;99444.11;124382;1102;102488;-72
2023/03/27 04:51:42;;;;;;;33.77;16.47;;;;;;;6.21;68.38;99445.16;124429;1102;104249;-71
2023/03/27 04:54:14;;;;;;;29.30;15.75;;;;;;;6.25;68.44;99447.92;124404;1102;104225;-73
2023/03/27 04:56:48;;;;;;;31.02;16.02;;;;;;;6.28;68.54;99453.25;124300;1102;104229;-71
2023/03/27 04:59:21;;;;;;;30.37;14.93;;;;;;;6.31;69.07;99447.27;124399;1103;103473;-71
2023/03/27 05:02:05;;;;;;;31.82;15.32;;;;;;;6.35;68.55;99449.13;124388;1102;102327;-70
2023/03/27 05:04:47;;;;;;;27.40;14.73;;;;;;;6.42;68.21;99453.74;124428;1102;104249;-71
2023/03/27 05:07:22;;;;;;;29.63;14.70;;;;;;;6.50;68.56;99447.89;124671;1102;104038;-70
2023/03/27 05:09:56;;;;;;;29.23;14.47;;;;;;;6.59;68.67;99448.22;124582;1102;102700;-74
2023/03/27 05:12:31;;;;;;;29.93;14.23;;;;;;;6.69;68.60;99449.45;124644;1102;104169;-73
2023/03/27 05:15:06;;;;;;;28.47;13.20;;;;;;;6.79;68.69;99459.34;124574;1102;104328;-72
2023/03/27 05:17:45;;;;;;;27.80;14.20;;;;;;;6.90;68.49;99446.66;124589;1102;103060;-75
2023/03/27 05:20:18;;;;;;;28.90;14.00;;;;;;;7.00;68.70;99438.31;124655;1102;104174;-74
2023/03/27 05:22:52;;;;;;;29.20;13.40;;;;;;;7.11;68.62;99436.06;124644;1102;102844;-73
2023/03/27 05:25:38;;;;;;;27.57;13.77;;;;;;;7.18;69.13;99433.70;124883;1102;104191;-74
2023/03/27 05:28:14;;;;;;;31.30;13.37;;;;;;;7.23;68.60;99438.16;124824;1102;102868;-75
2023/03/27 05:30:45;;;;;;;32.27;13.80;;;;;;;7.33;68.58;99435.02;124794;1102;102577;-73
2023/03/27 05:33:19;;;;;;;25.07;12.40;;;;;;;7.40;68.48;99428.26;124900;1102;102047;-73
2023/03/27 05:35:52;;;;;;;27.60;14.20;;;;;;;7.46;68.22;99444.98;124652;1103;104269;-75
2023/03/27 05:38:25;;;;;;;32.03;12.87;;;;;;;7.54;68.39;99440.00;125004;1102;101930;-74
2023/03/27 05:41:19;;;;;;;28.93;13.60;;;;;;;7.63;67.97;99442.90;124674;1102;118902;-76
2023/03/27 05:43:52;;;;;;;24.97;12.33;;;;;;;7.73;68.11;99442.34;124900;1102;103068;-79
2023/03/27 05:46:24;;;;;;;26.17;12.60;;;;;;;7.83;68.43;99443.50;124660;1102;104182;-73
2023/03/27 05:49:30;;;;;;;29.70;13.17;;;;;;;7.98;67.83;99442.17;124210;1102;104201;-78
2023/03/27 05:52:10;;;;;;;28.50;12.63;;;;;;;8.09;68.07;99431.20;124807;1102;103065;-75
2023/03/27 05:54:42;;;;;;;26.67;12.43;;;;;;;8.21;67.76;99438.52;124642;1102;104314;-72
2023/03/27 05:57:18;;;;;;;26.03;11.50;;;;;;;8.32;67.72;99427.45;124019;1102;102464;-71
2023/03/27 05:59:49;;;;;;;25.53;12.00;;;;;;;8.41;67.92;99428.62;124125;1102;104265;-71
2023/03/27 06:02:26;;;;;;;22.20;11.10;;;;;;;8.49;66.83;99431.44;124779;1102;104133;-76
2023/03/27 06:05:03;;;;;;;27.77;11.40;;;;;;;8.55;66.65;99423.77;124801;1102;103354;-78
2023/03/27 06:07:45;;;;;;;22.47;10.70;;;;;;;8.66;66.79;99421.43;124955;1102;104317;-77
2023/03/27 06:10:19;;;;;;;24.30;10.80;;;;;;;8.82;67.34;99417.50;125035;1102;102588;-76
2023/03/27 06:13:05;;;;;;;26.17;11.10;;;;;;;8.96;66.57;99413.49;124726;1102;103153;-76
2023/03/27 06:15:43;;;;;;;23.80;10.47;;;;;;;9.11;66.75;99407.73;124133;1102;104240;-76
2023/03/27 06:18:31;;;;;;;19.60;8.70;;;;;;;9.28;67.57;99408.13;124436;1102;104173;-77
2023/03/27 06:21:06;;;;;;;20.60;9.00;;;;;;;9.43;67.14;99398.88;124452;1102;104277;-73
2023/03/27 06:23:38;;;;;;;20.60;7.93;;;;;;;9.60;67.18;99391.37;124557;1102;104268;-73
2023/03/27 06:26:15;;;;;;;16.57;7.63;;;;;;;9.77;67.26;99400.50;124383;1102;102011;-77
2023/03/27 06:28:48;;;;;;;16.20;7.07;;;;;;;9.91;67.07;99392.94;125075;1102;104367;-74
2023/03/27 06:31:21;;;;;;;15.63;7.10;;;;;;;10.06;66.50;99385.35;124184;1102;101844;-74
2023/03/27 06:34:09;;;;;;;19.20;8.83;;;;;;;10.18;67.08;99381.23;124140;1102;104237;-74
2023/03/27 06:36:47;;;;;;;16.43;8.10;;;;;;;10.30;66.47;99386.70;124131;1102;101942;-74
2023/03/27 06:39:23;;;;;;;19.13;8.67;;;;;;;10.45;66.85;99375.63;124187;1102;103547;-72
2023/03/27 06:41:55;;;;;;;18.83;8.27;;;;;;;10.61;66.60;99376.78;124112;1102;102722;-74
2023/03/27 06:44:39;;;;;;;25.03;8.23;;;;;;;10.77;66.48;99377.95;124550;1102;101969;-77
2023/03/27 06:47:18;;;;;;;19.40;7.30;;;;;;;10.93;66.50;99369.45;124404;1102;102814;-81
2023/03/27 06:50:16;;;;;;;13.33;6.33;;;;;;;11.13;66.29;99366.27;124301;1102;104243;-77
2023/03/27 06:52:51;;;;;;;15.07;6.50;;;;;;;11.27;65.25;99359.48;124680;1102;104216;-78
2023/03/27 06:55:44;;;;;;;10.20;4.83;;;;;;;11.39;65.32;99353.53;124454;1102;103268;-74
2023/03/27 06:58:22;;;;;;;9.80;4.77;;;;;;;11.42;65.70;99340.44;124226;1102;104252;-75
2023/03/27 07:00:54;;;;;;;9.47;4.97;;;;;;;11.63;65.36;99350.33;124287;1102;103637;-75
2023/03/27 07:03:26;;;;;;;18.23;7.47;;;;;;;11.80;64.87;99352.30;124442;1101;104372;-75
2023/03/27 07:06:36;;;;;;;22.00;8.90;;;;;;;12.01;64.34;99349.06;124197;1102;104238;-73
2023/03/27 07:09:13;;;;;;;21.57;9.33;;;;;;;12.08;63.63;99342.16;124230;1102;104277;-77
2023/03/27 07:11:45;;;;;;;22.03;8.87;;;;;;;12.25;64.21;99337.05;124478;1102;104251;-77
2023/03/27 07:14:24;;;;;;;23.67;9.70;;;;;;;12.46;63.35;99342.52;125692;1102;104169;-76
2023/03/27 07:17:03;;;;;;;20.33;8.67;;;;;;;12.70;63.38;99330.44;124351;1102;102215;-76
2023/03/27 07:19:51;;;;;;;18.97;8.80;;;;;;;12.92;61.06;99329.76;124476;1102;104271;-75
2023/03/27 07:22:30;;;;;;;21.87;8.93;;;;;;;13.03;62.67;99321.06;124754;1099;104172;-73
2023/03/27 07:25:09;;;;;;;22.20;10.47;;;;;;;13.19;62.89;99325.55;126072;1098;104338;-76
2023/03/27 07:27:44;;;;;;;22.53;10.03;;;;;;;13.34;61.54;99323.90;124538;1099;104223;-76
2023/03/27 07:30:17;;;;;;;23.60;10.07;;;;;;;13.45;60.83;99327.50;124884;1099;102197;-75
2023/03/27 07:32:48;;;;;;;21.35;8.15;;;;;;;13.55;61.11;99308.20;124208;1099;104220;-75
2023/03/27 07:35:22;;;;;;;17.43;7.73;;;;;;;13.82;60.32;99303.91;124309;1100;104172;-76
2023/03/27 07:38:15;;;;;;;18.73;7.53;;;;;;;14.06;60.01;99315.43;124256;1099;104730;-75
2023/03/27 07:41:06;;;;;;;;;;;;;;;14.19;57.03;99306.66;124249;1099;104179;-74
2023/03/27 07:44:08;;;;;;;16.27;7.10;;;;;;;14.35;59.96;99295.25;124194;1098;107200;-75
2023/03/27 07:46:50;;;;;;;21.48;7.60;;;;;;;14.50;59.09;99296.14;124843;1099;101891;-74
2023/03/27 07:49:22;;;;;;;15.43;6.53;;;;;;;14.69;59.86;99292.67;124328;1098;104178;-73
2023/03/27 07:51:54;;;;;;;18.57;6.87;;;;;;;14.88;59.20;99282.96;124605;1099;104173;-74
2023/03/27 07:54:30;;;;;;;17.35;7.25;;;;;;;14.99;59.70;99276.77;124357;1102;104211;-77
2023/03/27 07:57:05;;;;;;;19.67;8.23;;;;;;;15.11;58.63;99284.67;124711;1099;104173;-74
2023/03/27 07:59:57;;;;;;;11.70;5.30;;;;;;;15.24;56.94;99274.97;124334;1099;104306;-72
2023/03/27 08:02:35;;;;;;;9.65;3.95;;;;;;;15.41;57.97;99281.08;124256;1099;102008;-76
2023/03/27 08:05:11;;;;;;;6.55;3.47;;;;;;;15.60;56.98;99273.08;124807;1099;104236;-75
2023/03/27 08:07:44;;;;;;;7.43;3.53;;;;;;;15.78;57.53;99273.02;124430;1102;101992;-74
2023/03/27 08:10:16;;;;;;;6.50;3.20;;;;;;;15.95;57.01;99261.45;124666;1099;104322;-76
2023/03/27 08:13:01;;;;;;;7.17;3.70;;;;;;;16.12;55.80;99259.57;124199;1099;104246;-73
2023/03/27 08:15:35;;;;;;;6.77;3.60;;;;;;;16.26;54.78;99258.61;124162;1099;104223;-72
2023/03/27 08:18:10;;;;;;;4.93;2.97;;;;;;;16.40;54.26;99250.56;124232;1099;104233;-72
2023/03/27 08:20:42;;;;;;;6.27;2.87;;;;;;;16.54;54.15;99243.38;124187;1099;103336;-73
2023/03/27 08:23:14;;;;;;;5.73;3.07;;;;;;;16.67;53.78;99241.48;124244;1099;104370;-73
2023/03/27 08:25:50;;;;;;;6.90;3.30;;;;;;;16.76;53.48;99249.35;124589;1099;104066;-73
2023/03/27 08:28:23;;;;;;;7.60;2.80;;;;;;;16.91;53.17;99243.07;124380;1099;104201;-76
2023/03/27 08:30:56;;;;;;;8.20;2.60;;;;;;;16.89;50.93;99237.79;124808;1099;104310;-77
2023/03/27 08:33:28;;;;;;;6.43;3.00;;;;;;;16.98;50.75;99242.09;124726;1098;104313;-75
2023/03/27 08:36:04;;;;;;;4.87;2.93;;;;;;;17.00;51.62;99232.38;124730;1099;104201;-73
2023/03/27 08:38:38;;;;;;;7.80;3.00;;;;;;;17.00;50.97;99231.48;124560;1099;104210;-75
2023/03/27 08:41:29;;;;;;;8.43;3.30;;;;;;;17.06;51.32;99228.77;124708;1099;104239;-75
2023/03/27 08:44:18;;;;;;;5.23;3.30;;;;;;;17.20;50.49;99223.30;124680;1099;104160;-74
2023/03/27 08:46:54;;;;;;;5.20;2.70;;;;;;;17.27;49.94;99213.53;124660;1099;104210;-75
2023/03/27 08:49:32;;;;;;;5.20;2.80;;;;;;;17.38;50.33;99201.88;124285;1099;104402;-72
2023/03/27 08:52:21;;;;;;;6.70;2.53;;;;;;;17.38;48.58;99198.36;124848;1099;104185;-72
2023/03/27 08:55:06;;;;;;;6.93;2.57;;;;;;;17.46;50.12;99203.56;124205;1099;104389;-71
2023/03/27 08:57:49;;;;;;;4.70;2.40;;;;;;;17.49;48.69;99188.48;125728;1099;104182;-72
2023/03/27 09:00:30;;;;;;;2.93;2.10;;;;;;;17.55;47.94;99185.75;124297;1099;101966;-72
2023/03/27 09:03:29;;;;;;;6.70;2.27;;;;;;;17.66;46.53;99184.73;124687;1099;104262;-73
2023/03/27 09:06:05;;;;;;;10.10;2.37;;;;;;;17.77;46.04;99196.05;124481;1099;104140;-71
2023/03/27 09:08:48;;;;;;;2.97;2.00;;;;;;;17.80;45.28;99185.41;124456;1099;102013;-74
2023/03/27 09:11:31;;;;;;;3.97;1.60;;;;;;;17.86;45.30;99190.62;124658;1099;103696;-79
2023/03/27 09:14:15;;;;;;;2.83;1.47;;;;;;;17.89;44.30;99185.30;124447;1099;104217;-83
2023/03/27 09:16:52;;;;;;;4.73;1.83;;;;;;;17.98;42.10;99176.30;124780;1099;101979;-70
2023/03/27 09:19:44;;;;;;;3.00;1.90;;;;;;;18.05;43.80;99177.10;124820;1099;101901;-75
2023/03/27 09:22:27;;;;;;;2.27;1.57;;;;;;;18.06;42.06;99178.83;124419;1099;104301;-78
2023/03/27 09:25:29;;;;;;;4.60;1.90;;;;;;;18.10;41.83;99175.24;124505;1099;104315;-73
2023/03/27 09:28:11;;;;;;;4.93;1.90;;;;;;;18.11;41.66;99161.08;124719;1099;104198;-74
2023/03/27 09:30:58;;;;;;;2.43;1.80;;;;;;;18.12;41.93;99155.75;124338;1099;104246;-77
2023/03/27 09:33:43;;;;;;;4.13;2.10;;;;;;;18.13;41.79;99151.30;124352;1102;104089;-79
2023/03/27 09:36:54;;;;;;;3.00;1.80;;;;;;;18.12;42.37;99144.23;124958;1099;104162;-76
2023/03/27 09:39:47;;;;;;;3.07;1.83;;;;;;;18.16;42.05;99145.94;124582;1102;101964;-81
2023/03/27 09:42:46;;;;;;;2.27;2.07;;;;;;;18.14;40.31;99134.48;125028;1099;102014;-78
2023/03/27 09:45:20;;;;;;;3.33;1.90;;;;;;;18.14;39.68;99129.17;125099;1099;104345;-78
2023/03/27 09:48:02;;;;;;;3.23;2.10;;;;;;;18.23;40.84;99128.12;124510;1099;104178;-74
2023/03/27 09:50:55;;;;;;;3.53;1.80;;;;;;;18.23;40.05;99121.05;124919;1099;104179;-77
2023/03/27 09:54:05;;;;;;;3.23;1.70;;;;;;;18.31;40.46;99116.47;124720;1099;104156;-78
2023/03/27 09:56:41;;;;;;;3.63;1.73;;;;;;;18.40;40.23;99106.58;124951;1099;102453;-77
2023/03/27 09:59:24;;;;;;;2.83;1.70;;;;;;;18.39;39.24;99102.19;124360;1099;104232;-75
2023/03/27 10:01:58;;;;;;;4.30;1.90;;;;;;;18.46;39.48;99104.67;124515;1099;104281;-78
2023/03/27 10:04:30;;;;;;;3.70;1.73;;;;;;;18.63;39.41;99087.55;124411;1099;104350;-76
2023/03/27 10:07:07;;;;;;;3.00;1.75;;;;;;;18.88;39.13;99090.61;124539;1099;101803;-76
2023/03/27 10:10:18;;;;;;;3.57;1.60;;;;;;;19.08;38.74;99076.91;125131;1102;102013;-76
2023/03/27 10:13:19;;;;;;;4.27;1.80;;;;;;;19.21;39.07;99078.40;124965;1099;104226;-78
2023/03/27 10:16:00;;;;;;;4.83;2.30;;;;;;;19.35;38.71;99072.77;125095;1099;102088;-78
2023/03/27 10:18:43;;;;;;;6.62;2.25;;;;;;;19.44;38.73;99063.68;124837;1099;103685;-81
2023/03/27 10:21:33;;;;;;;5.53;2.00;;;;;;;19.48;38.54;99064.51;124797;1102;102085;-75
2023/03/27 10:24:19;;;;;;;3.97;1.70;;;;;;;19.43;38.25;99071.70;125015;1099;102454;-73
2023/03/27 10:27:17;;;;;;;5.28;2.08;;;;;;;19.36;38.22;99063.86;125270;1099;102183;-79
2023/03/27 10:30:33;;;;;;;5.00;2.37;;;;;;;19.36;38.33;99060.33;125026;1099;104176;-81
2023/03/27 10:33:46;;;;;;;3.20;1.63;;;;;;;19.32;38.10;99064.86;124983;1099;105131;-78
2023/03/27 10:36:25;;;;;;;3.43;1.97;;;;;;;19.19;36.78;99064.23;125148;1101;102677;-79
2023/03/27 10:39:02;;;;;;;2.73;2.10;;;;;;;19.13;37.28;99056.40;116331;1102;10001632;-73
2023/03/27 10:42:14;;;;;;;2.60;1.93;;;;;;;19.09;37.66;99053.84;125096;1102;102301;-76
2023/03/27 10:44:53;;;;;;;5.78;2.52;;;;;;;19.16;37.93;99045.70;125161;1099;104242;-75
2023/03/27 10:47:30;;;;;;;3.40;2.10;;;;;;;19.26;37.37;99051.70;124718;1099;104185;-75
2023/03/27 10:50:11;;;;;;;5.20;2.47;;;;;;;19.35;38.19;99031.98;124185;1102;104224;-72
2023/03/27 10:52:58;;;;;;;6.57;2.40;;;;;;;19.37;38.04;99030.18;124108;1102;104306;-72
2023/03/27 10:55:47;;;;;;;3.83;2.27;;;;;;;19.45;36.85;99012.24;124184;1099;104207;-73
2023/03/27 10:58:33;;;;;;;4.90;2.40;;;;;;;19.53;37.34;99015.58;124233;1099;109423;-72
2023/03/27 11:01:16;;;;;;;7.87;2.30;;;;;;;19.61;37.02;98996.77;124278;1102;102733;-73
2023/03/27 11:03:59;;;;;;;8.67;3.00;;;;;;;19.71;36.54;99000.06;124475;1102;104233;-77
2023/03/27 11:06:52;;;;;;;3.97;2.17;;;;;;;19.75;36.25;98994.62;124666;1102;104160;-73
2023/03/27 11:09:32;;;;;;;5.30;1.77;;;;;;;19.83;35.68;98985.61;124435;1099;104191;-72
2023/03/27 11:12:14;;;;;;;6.00;2.30;;;;;;;19.81;36.46;98984.78;124333;1102;104197;-72
2023/03/27 11:15:06;;;;;;;6.03;2.17;;;;;;;19.80;35.52;98975.05;124772;1102;104169;-76
2023/03/27 11:17:44;;;;;;;5.80;2.20;;;;;;;19.84;36.02;98976.72;124283;1102;103274;-74
2023/03/27 11:20:34;;;;;;;3.45;1.82;;;;;;;19.77;34.07;98956.49;124314;1099;104262;-73
2023/03/27 11:23:28;;;;;;;4.33;2.07;;;;;;;19.73;35.83;98964.52;124192;1099;104245;-72
2023/03/27 11:26:31;;;;;;;3.20;2.07;;;;;;;19.72;34.05;98954.78;124188;1099;104230;-75
2023/03/27 11:29:09;;;;;;;6.60;2.27;;;;;;;19.71;34.86;98955.72;124305;1099;104614;-72
2023/03/27 11:31:52;;;;;;;3.30;1.70;;;;;;;19.73;34.72;98950.36;124384;1099;102359;-75
2023/03/27 11:34:48;;;;;;;4.23;1.80;;;;;;;19.80;34.50;98948.43;124445;1099;104310;-76
2023/03/27 11:37:48;;;;;;;2.03;1.20;;;;;;;19.83;32.78;98948.34;124664;1099;104165;-74
2023/03/27 11:40:48;;;;;;;3.23;1.53;;;;;;;19.79;31.72;98939.58;125167;1098;104232;-77
2023/03/27 11:44:00;;;;;;;;;;;;;;;;;;;;;
2023/03/27 11:47:18;;;;;;;7.47;1.50;;;;;;;19.70;31.42;98926.48;125291;1098;102224;-77
2023/03/27 11:50:41;;;;;;;1.27;1.13;;;;;;;19.61;29.77;98932.05;124855;1099;106615;-75
2023/03/27 11:53:52;;;;;;;4.67;1.57;;;;;;;19.57;30.69;98932.13;126020;1098;101874;-74
2023/03/27 11:56:54;;;;;;;1.70;1.45;;;;;;;19.61;31.07;98935.57;124142;1102;102397;-71
2023/03/27 12:00:10;;;;;;;5.20;1.55;;;;;;;19.61;30.99;98924.94;124568;1099;102035;-74
2023/03/27 12:03:44;;;;;;;2.90;1.73;;;;;;;19.63;31.04;98914.25;125961;1098;102023;-73
2023/03/27 12:06:33;;;;;;;1.90;1.20;;;;;;;19.45;30.23;98911.16;124285;1099;104414;-74
2023/03/27 12:09:36;;;;;;;5.60;1.30;;;;;;;19.37;29.11;98907.84;124370;1099;102053;-72
2023/03/27 12:12:55;;;;;;;3.03;1.13;;;;;;;19.24;29.05;98906.39;124664;1099;102775;-72
2023/03/27 12:15:48;;;;;;;2.83;1.30;;;;;;;19.08;28.90;98912.08;124227;1099;104240;-74
2023/03/27 12:18:30;;;;;;;2.13;1.43;;;;;;;19.01;30.23;98915.79;125009;1099;104293;-74
2023/03/27 12:21:16;;;;;;;3.87;1.50;;;;;;;18.98;30.26;98918.52;124702;1098;107039;-75